sensor_id;sensor_type;location;lat;lon;timestamp;temperature;humidity
21445;DHT22;10883;51.946;20.140;2023-05-19T00:01:13;10.60;99.90
21445;DHT22;10883;51.946;20.140;2023-05-19T00:03:52;10.50;99.90
21445;DHT22;10883;51.946;20.140;2023-05-19T00:06:30;10.50;99.90
21445;DHT22;10883;51.946;20.140;2023-05-19T00:11:23;10.50;99.90
21445;DHT22;10883;51.946;20.140;2023-05-19T00:13:52;10.50;99.90
21445;DHT22;10883;51.946;20.140;2023-05-19T00:16:18;10.40;99.90
21445;DHT22;10883;51.946;20.140;2023-05-19T00:18:44;10.40;99.90
21445;DHT22;10883;51.946;20.140;2023-05-19T00:21:09;10.40;99.90
21445;DHT22;10883;51.946;20.140;2023-05-19T00:23:35;10.40;99.90
21445;DHT22;10883;51.946;20.140;2023-05-19T00:26:01;10.40;99.90
21445;DHT22;10883;51.946;20.140;2023-05-19T00:28:27;10.40;99.90
21445;DHT22;10883;51.946;20.140;2023-05-19T00:30:52;10.40;99.90
21445;DHT22;10883;51.946;20.140;2023-05-19T00:33:18;10.50;99.90
21445;DHT22;10883;51.946;20.140;2023-05-19T00:35:44;10.40;99.90
21445;DHT22;10883;51.946;20.140;2023-05-19T00:38:10;10.40;99.90
21445;DHT22;10883;51.946;20.140;2023-05-19T00:40:35;10.40;99.90
21445;DHT22;10883;51.946;20.140;2023-05-19T00:43:01;10.30;99.90
21445;DHT22;10883;51.946;20.140;2023-05-19T00:45:30;10.30;99.90
21445;DHT22;10883;51.946;20.140;2023-05-19T00:47:55;10.30;99.90
21445;DHT22;10883;51.946;20.140;2023-05-19T00:50:22;10.30;99.90
21445;DHT22;10883;51.946;20.140;2023-05-19T00:52:55;10.40;99.90
21445;DHT22;10883;51.946;20.140;2023-05-19T00:55:23;10.40;99.90
21445;DHT22;10883;51.946;20.140;2023-05-19T00:57:49;10.40;99.90
21445;DHT22;10883;51.946;20.140;2023-05-19T01:00:15;10.50;99.90
21445;DHT22;10883;51.946;20.140;2023-05-19T01:02:42;10.50;99.90
21445;DHT22;10883;51.946;20.140;2023-05-19T01:05:08;10.50;99.90
21445;DHT22;10883;51.946;20.140;2023-05-19T01:07:34;10.60;99.90
21445;DHT22;10883;51.946;20.140;2023-05-19T01:10:01;10.70;99.90
21445;DHT22;10883;51.946;20.140;2023-05-19T01:12:28;10.70;99.90
21445;DHT22;10883;51.946;20.140;2023-05-19T01:14:54;10.70;99.90
21445;DHT22;10883;51.946;20.140;2023-05-19T01:20:01;10.70;99.90
21445;DHT22;10883;51.946;20.140;2023-05-19T01:22:57;10.80;99.90
21445;DHT22;10883;51.946;20.140;2023-05-19T01:31:02;10.90;99.90
21445;DHT22;10883;51.946;20.140;2023-05-19T01:33:32;10.90;99.90
21445;DHT22;10883;51.946;20.140;2023-05-19T01:35:59;10.90;99.90
21445;DHT22;10883;51.946;20.140;2023-05-19T01:38:27;10.90;99.90
21445;DHT22;10883;51.946;20.140;2023-05-19T01:40:55;10.80;99.90
21445;DHT22;10883;51.946;20.140;2023-05-19T01:43:24;10.80;99.90
21445;DHT22;10883;51.946;20.140;2023-05-19T01:45:51;10.80;99.90
21445;DHT22;10883;51.946;20.140;2023-05-19T01:48:18;10.90;99.90
21445;DHT22;10883;51.946;20.140;2023-05-19T01:50:44;10.80;99.90
21445;DHT22;10883;51.946;20.140;2023-05-19T01:53:10;10.80;99.90
21445;DHT22;10883;51.946;20.140;2023-05-19T01:55:42;10.70;99.90
21445;DHT22;10883;51.946;20.140;2023-05-19T02:07:25;10.70;99.90
21445;DHT22;10883;51.946;20.140;2023-05-19T02:10:21;10.70;99.90
21445;DHT22;10883;51.946;20.140;2023-05-19T02:12:52;10.70;99.90
21445;DHT22;10883;51.946;20.140;2023-05-19T02:15:24;10.70;99.90
21445;DHT22;10883;51.946;20.140;2023-05-19T02:17:52;10.70;99.90
21445;DHT22;10883;51.946;20.140;2023-05-19T02:20:20;10.70;99.90
21445;DHT22;10883;51.946;20.140;2023-05-19T02:22:48;10.70;99.90
21445;DHT22;10883;51.946;20.140;2023-05-19T02:25:14;10.70;99.90
21445;DHT22;10883;51.946;20.140;2023-05-19T02:27:40;10.70;99.90
21445;DHT22;10883;51.946;20.140;2023-05-19T02:30:07;10.60;99.90
21445;DHT22;10883;51.946;20.140;2023-05-19T02:32:33;10.60;99.90
21445;DHT22;10883;51.946;20.140;2023-05-19T02:34:59;10.60;99.90
21445;DHT22;10883;51.946;20.140;2023-05-19T02:37:25;10.60;99.90
21445;DHT22;10883;51.946;20.140;2023-05-19T02:39:55;10.60;99.90
21445;DHT22;10883;51.946;20.140;2023-05-19T02:42:21;10.60;99.90
21445;DHT22;10883;51.946;20.140;2023-05-19T02:44:47;10.60;99.90
21445;DHT22;10883;51.946;20.140;2023-05-19T02:47:13;10.70;99.90
21445;DHT22;10883;51.946;20.140;2023-05-19T02:49:39;10.70;99.90
21445;DHT22;10883;51.946;20.140;2023-05-19T02:52:05;10.70;99.90
21445;DHT22;10883;51.946;20.140;2023-05-19T02:54:32;10.60;99.90
21445;DHT22;10883;51.946;20.140;2023-05-19T02:56:59;10.70;99.90
21445;DHT22;10883;51.946;20.140;2023-05-19T02:59:25;10.70;99.90
21445;DHT22;10883;51.946;20.140;2023-05-19T03:01:55;10.70;99.90
21445;DHT22;10883;51.946;20.140;2023-05-19T03:04:21;10.70;99.90
21445;DHT22;10883;51.946;20.140;2023-05-19T03:06:46;10.70;99.90
21445;DHT22;10883;51.946;20.140;2023-05-19T03:09:13;10.70;99.90
21445;DHT22;10883;51.946;20.140;2023-05-19T03:11:39;10.70;99.90
21445;DHT22;10883;51.946;20.140;2023-05-19T03:14:05;10.70;99.90
21445;DHT22;10883;51.946;20.140;2023-05-19T03:16:31;10.70;99.90
21445;DHT22;10883;51.946;20.140;2023-05-19T03:18:57;10.70;99.90
21445;DHT22;10883;51.946;20.140;2023-05-19T03:21:22;10.70;99.90
21445;DHT22;10883;51.946;20.140;2023-05-19T03:23:48;10.70;99.90
21445;DHT22;10883;51.946;20.140;2023-05-19T03:26:14;10.70;99.90
21445;DHT22;10883;51.946;20.140;2023-05-19T03:28:40;10.70;99.90
21445;DHT22;10883;51.946;20.140;2023-05-19T03:31:06;10.70;99.90
21445;DHT22;10883;51.946;20.140;2023-05-19T03:33:31;10.80;99.90
21445;DHT22;10883;51.946;20.140;2023-05-19T03:35:57;10.80;99.90
21445;DHT22;10883;51.946;20.140;2023-05-19T03:38:23;10.80;99.90
21445;DHT22;10883;51.946;20.140;2023-05-19T03:40:49;10.80;99.90
21445;DHT22;10883;51.946;20.140;2023-05-19T03:43:15;10.90;99.90
21445;DHT22;10883;51.946;20.140;2023-05-19T03:45:41;10.90;99.90
21445;DHT22;10883;51.946;20.140;2023-05-19T03:48:07;10.90;99.90
21445;DHT22;10883;51.946;20.140;2023-05-19T03:50:32;10.90;99.90
21445;DHT22;10883;51.946;20.140;2023-05-19T03:52:59;10.90;99.90
21445;DHT22;10883;51.946;20.140;2023-05-19T03:55:25;10.90;99.90
21445;DHT22;10883;51.946;20.140;2023-05-19T03:57:51;10.90;99.90
21445;DHT22;10883;51.946;20.140;2023-05-19T04:00:17;11.00;99.90
21445;DHT22;10883;51.946;20.140;2023-05-19T04:02:43;11.00;99.90
21445;DHT22;10883;51.946;20.140;2023-05-19T04:05:09;10.90;99.90
21445;DHT22;10883;51.946;20.140;2023-05-19T04:07:35;10.90;99.90
21445;DHT22;10883;51.946;20.140;2023-05-19T04:10:03;10.90;99.90
21445;DHT22;10883;51.946;20.140;2023-05-19T04:12:29;10.90;99.90
21445;DHT22;10883;51.946;20.140;2023-05-19T04:14:55;10.90;99.90
21445;DHT22;10883;51.946;20.140;2023-05-19T04:17:21;10.90;99.90
21445;DHT22;10883;51.946;20.140;2023-05-19T04:19:54;10.90;99.90
21445;DHT22;10883;51.946;20.140;2023-05-19T04:22:19;10.90;99.90
21445;DHT22;10883;51.946;20.140;2023-05-19T04:24:45;10.90;99.90
21445;DHT22;10883;51.946;20.140;2023-05-19T04:27:12;11.00;99.90
21445;DHT22;10883;51.946;20.140;2023-05-19T04:29:38;11.00;99.90
21445;DHT22;10883;51.946;20.140;2023-05-19T04:32:05;11.10;99.90
21445;DHT22;10883;51.946;20.140;2023-05-19T04:34:32;11.10;99.90
21445;DHT22;10883;51.946;20.140;2023-05-19T04:37:00;11.10;99.90
21445;DHT22;10883;51.946;20.140;2023-05-19T04:39:26;11.20;99.90
21445;DHT22;10883;51.946;20.140;2023-05-19T04:41:51;11.20;99.90
21445;DHT22;10883;51.946;20.140;2023-05-19T04:44:20;11.20;99.90
21445;DHT22;10883;51.946;20.140;2023-05-19T04:46:50;11.30;99.90
21445;DHT22;10883;51.946;20.140;2023-05-19T04:49:19;11.30;99.90
21445;DHT22;10883;51.946;20.140;2023-05-19T04:51:45;11.40;99.90
21445;DHT22;10883;51.946;20.140;2023-05-19T04:54:14;11.50;99.90
21445;DHT22;10883;51.946;20.140;2023-05-19T04:56:40;11.50;99.90
21445;DHT22;10883;51.946;20.140;2023-05-19T04:59:10;11.60;99.90
21445;DHT22;10883;51.946;20.140;2023-05-19T05:01:38;11.60;99.90
21445;DHT22;10883;51.946;20.140;2023-05-19T05:04:06;11.60;99.90
21445;DHT22;10883;51.946;20.140;2023-05-19T05:06:36;11.80;99.90
21445;DHT22;10883;51.946;20.140;2023-05-19T05:09:06;11.80;99.90
21445;DHT22;10883;51.946;20.140;2023-05-19T05:11:32;11.80;99.90
21445;DHT22;10883;51.946;20.140;2023-05-19T05:13:58;12.00;99.90
21445;DHT22;10883;51.946;20.140;2023-05-19T05:16:25;12.00;99.90
21445;DHT22;10883;51.946;20.140;2023-05-19T05:18:51;12.00;99.90
21445;DHT22;10883;51.946;20.140;2023-05-19T05:21:17;12.20;99.90
21445;DHT22;10883;51.946;20.140;2023-05-19T05:23:43;12.20;99.90
21445;DHT22;10883;51.946;20.140;2023-05-19T05:26:16;12.20;99.90
21445;DHT22;10883;51.946;20.140;2023-05-19T05:28:44;12.30;99.90
21445;DHT22;10883;51.946;20.140;2023-05-19T05:31:09;12.40;99.90
21445;DHT22;10883;51.946;20.140;2023-05-19T05:33:37;12.50;99.90
21445;DHT22;10883;51.946;20.140;2023-05-19T05:36:03;12.50;99.90
21445;DHT22;10883;51.946;20.140;2023-05-19T05:38:29;12.60;99.90
21445;DHT22;10883;51.946;20.140;2023-05-19T05:40:55;12.60;99.90
21445;DHT22;10883;51.946;20.140;2023-05-19T05:43:21;12.70;99.90
21445;DHT22;10883;51.946;20.140;2023-05-19T05:45:47;12.70;99.90
21445;DHT22;10883;51.946;20.140;2023-05-19T05:48:13;12.70;99.90
21445;DHT22;10883;51.946;20.140;2023-05-19T05:50:39;12.80;99.90
21445;DHT22;10883;51.946;20.140;2023-05-19T05:53:08;12.90;99.90
21445;DHT22;10883;51.946;20.140;2023-05-19T05:55:34;12.90;99.90
21445;DHT22;10883;51.946;20.140;2023-05-19T05:58:00;13.10;99.90
21445;DHT22;10883;51.946;20.140;2023-05-19T06:00:26;13.20;99.90
21445;DHT22;10883;51.946;20.140;2023-05-19T06:02:53;13.40;99.90
21445;DHT22;10883;51.946;20.140;2023-05-19T06:05:18;13.70;99.90
21445;DHT22;10883;51.946;20.140;2023-05-19T06:07:44;13.90;99.90
21445;DHT22;10883;51.946;20.140;2023-05-19T06:10:10;14.00;99.90
21445;DHT22;10883;51.946;20.140;2023-05-19T06:12:36;14.00;99.90
21445;DHT22;10883;51.946;20.140;2023-05-19T06:15:06;14.10;99.90
21445;DHT22;10883;51.946;20.140;2023-05-19T06:17:32;14.00;99.90
21445;DHT22;10883;51.946;20.140;2023-05-19T06:20:01;14.00;99.90
21445;DHT22;10883;51.946;20.140;2023-05-19T06:22:27;14.00;99.90
21445;DHT22;10883;51.946;20.140;2023-05-19T06:24:53;14.00;99.90
21445;DHT22;10883;51.946;20.140;2023-05-19T06:27:19;14.00;99.90
21445;DHT22;10883;51.946;20.140;2023-05-19T06:29:45;14.10;99.90
21445;DHT22;10883;51.946;20.140;2023-05-19T06:32:10;14.00;99.90
21445;DHT22;10883;51.946;20.140;2023-05-19T06:34:36;14.00;99.90
21445;DHT22;10883;51.946;20.140;2023-05-19T06:37:03;14.00;99.90
21445;DHT22;10883;51.946;20.140;2023-05-19T06:39:28;14.00;99.90
21445;DHT22;10883;51.946;20.140;2023-05-19T06:41:54;14.00;99.90
21445;DHT22;10883;51.946;20.140;2023-05-19T06:44:21;14.00;99.90
21445;DHT22;10883;51.946;20.140;2023-05-19T06:46:46;14.10;99.90
21445;DHT22;10883;51.946;20.140;2023-05-19T06:49:12;14.10;99.90
21445;DHT22;10883;51.946;20.140;2023-05-19T06:51:38;14.00;99.90
21445;DHT22;10883;51.946;20.140;2023-05-19T06:54:04;13.90;99.90
21445;DHT22;10883;51.946;20.140;2023-05-19T06:56:29;13.90;99.90
21445;DHT22;10883;51.946;20.140;2023-05-19T06:58:55;13.80;99.90
21445;DHT22;10883;51.946;20.140;2023-05-19T07:01:21;13.80;99.90
21445;DHT22;10883;51.946;20.140;2023-05-19T07:03:47;13.80;99.90
21445;DHT22;10883;51.946;20.140;2023-05-19T07:06:12;13.70;99.90
21445;DHT22;10883;51.946;20.140;2023-05-19T07:08:38;13.70;99.90
21445;DHT22;10883;51.946;20.140;2023-05-19T07:11:04;13.70;99.90
21445;DHT22;10883;51.946;20.140;2023-05-19T07:13:30;13.90;99.90
21445;DHT22;10883;51.946;20.140;2023-05-19T07:15:57;14.00;99.90
21445;DHT22;10883;51.946;20.140;2023-05-19T07:18:23;14.00;99.90
21445;DHT22;10883;51.946;20.140;2023-05-19T07:20:51;14.00;99.90
21445;DHT22;10883;51.946;20.140;2023-05-19T07:23:17;14.00;99.90
21445;DHT22;10883;51.946;20.140;2023-05-19T07:25:43;14.20;99.90
21445;DHT22;10883;51.946;20.140;2023-05-19T07:28:09;14.10;99.90
21445;DHT22;10883;51.946;20.140;2023-05-19T07:30:35;14.10;99.90
21445;DHT22;10883;51.946;20.140;2023-05-19T07:33:01;14.00;99.90
21445;DHT22;10883;51.946;20.140;2023-05-19T07:35:26;13.90;99.90
21445;DHT22;10883;51.946;20.140;2023-05-19T07:37:52;13.90;99.90
21445;DHT22;10883;51.946;20.140;2023-05-19T07:40:18;13.80;99.90
21445;DHT22;10883;51.946;20.140;2023-05-19T07:42:44;13.70;99.90
21445;DHT22;10883;51.946;20.140;2023-05-19T07:45:10;13.30;99.90
21445;DHT22;10883;51.946;20.140;2023-05-19T07:47:36;13.10;99.90
21445;DHT22;10883;51.946;20.140;2023-05-19T07:50:02;13.10;99.90
21445;DHT22;10883;51.946;20.140;2023-05-19T07:52:28;13.10;99.90
21445;DHT22;10883;51.946;20.140;2023-05-19T07:54:54;13.20;99.90
21445;DHT22;10883;51.946;20.140;2023-05-19T07:57:20;13.30;99.90
21445;DHT22;10883;51.946;20.140;2023-05-19T07:59:46;13.30;99.90
21445;DHT22;10883;51.946;20.140;2023-05-19T08:02:12;13.50;99.90
21445;DHT22;10883;51.946;20.140;2023-05-19T08:04:38;13.60;99.90
21445;DHT22;10883;51.946;20.140;2023-05-19T08:07:03;13.70;99.90
21445;DHT22;10883;51.946;20.140;2023-05-19T08:09:29;13.70;99.90
21445;DHT22;10883;51.946;20.140;2023-05-19T08:11:55;13.70;99.90
21445;DHT22;10883;51.946;20.140;2023-05-19T08:14:21;13.70;99.90
21445;DHT22;10883;51.946;20.140;2023-05-19T08:16:48;13.70;99.90
21445;DHT22;10883;51.946;20.140;2023-05-19T08:19:13;13.80;99.90
21445;DHT22;10883;51.946;20.140;2023-05-19T08:21:39;13.90;99.90
21445;DHT22;10883;51.946;20.140;2023-05-19T08:24:07;14.00;99.90
21445;DHT22;10883;51.946;20.140;2023-05-19T08:26:33;14.10;99.90
21445;DHT22;10883;51.946;20.140;2023-05-19T08:28:59;14.10;99.90
21445;DHT22;10883;51.946;20.140;2023-05-19T08:31:25;14.20;99.90
21445;DHT22;10883;51.946;20.140;2023-05-19T08:33:51;14.10;99.90
21445;DHT22;10883;51.946;20.140;2023-05-19T08:36:17;14.00;99.90
21445;DHT22;10883;51.946;20.140;2023-05-19T08:38:43;14.10;99.90
21445;DHT22;10883;51.946;20.140;2023-05-19T08:41:09;14.10;99.90
21445;DHT22;10883;51.946;20.140;2023-05-19T08:43:35;14.30;99.90
21445;DHT22;10883;51.946;20.140;2023-05-19T08:46:03;14.50;99.90
21445;DHT22;10883;51.946;20.140;2023-05-19T08:48:29;14.60;99.90
21445;DHT22;10883;51.946;20.140;2023-05-19T08:53:35;15.00;99.90
21445;DHT22;10883;51.946;20.140;2023-05-19T08:56:11;15.20;99.90
21445;DHT22;10883;51.946;20.140;2023-05-19T08:58:39;15.20;99.90
21445;DHT22;10883;51.946;20.140;2023-05-19T09:01:07;15.20;99.90
21445;DHT22;10883;51.946;20.140;2023-05-19T09:03:33;15.10;99.90
21445;DHT22;10883;51.946;20.140;2023-05-19T09:06:07;15.00;99.90
21445;DHT22;10883;51.946;20.140;2023-05-19T09:08:42;14.70;99.90
21445;DHT22;10883;51.946;20.140;2023-05-19T09:11:09;14.60;99.90
21445;DHT22;10883;51.946;20.140;2023-05-19T09:13:35;14.40;99.90
21445;DHT22;10883;51.946;20.140;2023-05-19T09:16:01;14.40;99.90
21445;DHT22;10883;51.946;20.140;2023-05-19T09:18:28;14.40;99.90
21445;DHT22;10883;51.946;20.140;2023-05-19T09:20:59;14.50;99.90
21445;DHT22;10883;51.946;20.140;2023-05-19T09:23:33;14.30;99.90
21445;DHT22;10883;51.946;20.140;2023-05-19T09:26:03;14.30;99.90
21445;DHT22;10883;51.946;20.140;2023-05-19T09:28:34;14.30;99.90
21445;DHT22;10883;51.946;20.140;2023-05-19T09:31:01;14.40;99.90
21445;DHT22;10883;51.946;20.140;2023-05-19T09:33:27;14.50;99.90
21445;DHT22;10883;51.946;20.140;2023-05-19T09:35:56;14.50;99.90
21445;DHT22;10883;51.946;20.140;2023-05-19T09:38:28;14.50;99.90
21445;DHT22;10883;51.946;20.140;2023-05-19T09:40:58;14.40;99.90
21445;DHT22;10883;51.946;20.140;2023-05-19T09:43:29;14.40;99.90
21445;DHT22;10883;51.946;20.140;2023-05-19T09:45:58;14.30;99.90
21445;DHT22;10883;51.946;20.140;2023-05-19T09:48:26;14.20;99.90
21445;DHT22;10883;51.946;20.140;2023-05-19T09:50:53;14.20;99.90
21445;DHT22;10883;51.946;20.140;2023-05-19T09:53:20;14.10;99.90
21445;DHT22;10883;51.946;20.140;2023-05-19T09:55:47;14.10;99.90
21445;DHT22;10883;51.946;20.140;2023-05-19T09:58:19;14.10;99.90
21445;DHT22;10883;51.946;20.140;2023-05-19T10:00:46;14.20;99.90
21445;DHT22;10883;51.946;20.140;2023-05-19T10:03:13;14.20;99.90
21445;DHT22;10883;51.946;20.140;2023-05-19T10:05:42;14.30;99.90
21445;DHT22;10883;51.946;20.140;2023-05-19T10:08:08;14.30;99.90
21445;DHT22;10883;51.946;20.140;2023-05-19T10:10:36;14.30;99.90
21445;DHT22;10883;51.946;20.140;2023-05-19T10:13:03;14.30;99.90
21445;DHT22;10883;51.946;20.140;2023-05-19T10:15:29;14.20;99.90
21445;DHT22;10883;51.946;20.140;2023-05-19T10:17:55;14.20;99.90
21445;DHT22;10883;51.946;20.140;2023-05-19T10:20:21;14.20;99.90
21445;DHT22;10883;51.946;20.140;2023-05-19T10:22:47;14.30;99.90
21445;DHT22;10883;51.946;20.140;2023-05-19T10:25:13;14.30;99.90
21445;DHT22;10883;51.946;20.140;2023-05-19T10:27:49;14.40;99.90
21445;DHT22;10883;51.946;20.140;2023-05-19T10:30:20;14.50;99.90
21445;DHT22;10883;51.946;20.140;2023-05-19T10:32:48;14.70;99.90
21445;DHT22;10883;51.946;20.140;2023-05-19T10:40:36;15.10;99.90
21445;DHT22;10883;51.946;20.140;2023-05-19T10:45:56;14.80;99.90
21445;DHT22;10883;51.946;20.140;2023-05-19T10:48:22;14.70;99.90
21445;DHT22;10883;51.946;20.140;2023-05-19T10:50:52;14.70;99.90
21445;DHT22;10883;51.946;20.140;2023-05-19T10:53:18;14.70;99.90
21445;DHT22;10883;51.946;20.140;2023-05-19T10:55:51;14.50;99.90
21445;DHT22;10883;51.946;20.140;2023-05-19T10:58:49;14.30;99.90
21445;DHT22;10883;51.946;20.140;2023-05-19T11:01:18;14.40;99.90
21445;DHT22;10883;51.946;20.140;2023-05-19T11:03:51;14.40;99.90
21445;DHT22;10883;51.946;20.140;2023-05-19T11:06:29;14.30;99.90
21445;DHT22;10883;51.946;20.140;2023-05-19T11:14:17;14.30;99.90
21445;DHT22;10883;51.946;20.140;2023-05-19T11:16:49;14.30;99.90
21445;DHT22;10883;51.946;20.140;2023-05-19T11:19:25;14.50;99.90
21445;DHT22;10883;51.946;20.140;2023-05-19T11:21:52;14.60;99.90
21445;DHT22;10883;51.946;20.140;2023-05-19T11:24:38;14.90;99.90
21445;DHT22;10883;51.946;20.140;2023-05-19T11:27:17;14.90;99.90
21445;DHT22;10883;51.946;20.140;2023-05-19T11:29:43;14.90;99.90
21445;DHT22;10883;51.946;20.140;2023-05-19T11:32:10;15.00;99.90
21445;DHT22;10883;51.946;20.140;2023-05-19T11:34:37;14.90;99.90
21445;DHT22;10883;51.946;20.140;2023-05-19T11:37:06;14.90;99.90
21445;DHT22;10883;51.946;20.140;2023-05-19T11:39:32;14.80;99.90
21445;DHT22;10883;51.946;20.140;2023-05-19T11:41:59;14.70;99.90
21445;DHT22;10883;51.946;20.140;2023-05-19T11:44:25;14.80;99.90
21445;DHT22;10883;51.946;20.140;2023-05-19T11:46:51;14.80;99.90
21445;DHT22;10883;51.946;20.140;2023-05-19T11:49:17;14.70;99.90
21445;DHT22;10883;51.946;20.140;2023-05-19T11:51:46;14.80;99.90
21445;DHT22;10883;51.946;20.140;2023-05-19T11:54:12;14.80;99.90
21445;DHT22;10883;51.946;20.140;2023-05-19T11:56:41;15.00;99.90
21445;DHT22;10883;51.946;20.140;2023-05-19T11:59:08;15.00;99.90
21445;DHT22;10883;51.946;20.140;2023-05-19T12:01:34;15.00;99.90
21445;DHT22;10883;51.946;20.140;2023-05-19T12:04:01;15.10;99.90
21445;DHT22;10883;51.946;20.140;2023-05-19T12:06:27;15.20;99.90
21445;DHT22;10883;51.946;20.140;2023-05-19T12:08:54;15.30;99.90
21445;DHT22;10883;51.946;20.140;2023-05-19T12:11:20;15.10;99.90
21445;DHT22;10883;51.946;20.140;2023-05-19T12:13:47;15.20;99.90
21445;DHT22;10883;51.946;20.140;2023-05-19T12:16:18;15.20;99.90
21445;DHT22;10883;51.946;20.140;2023-05-19T12:18:46;15.40;99.90
21445;DHT22;10883;51.946;20.140;2023-05-19T12:21:11;15.50;99.90
21445;DHT22;10883;51.946;20.140;2023-05-19T12:23:37;15.40;99.90
21445;DHT22;10883;51.946;20.140;2023-05-19T12:26:03;15.30;99.90
21445;DHT22;10883;51.946;20.140;2023-05-19T12:28:29;15.20;99.90
21445;DHT22;10883;51.946;20.140;2023-05-19T12:30:56;15.00;99.90
21445;DHT22;10883;51.946;20.140;2023-05-19T12:33:23;15.10;99.90
21445;DHT22;10883;51.946;20.140;2023-05-19T12:35:49;15.30;99.90
21445;DHT22;10883;51.946;20.140;2023-05-19T12:38:15;15.30;99.90
21445;DHT22;10883;51.946;20.140;2023-05-19T12:40:42;15.40;99.90
21445;DHT22;10883;51.946;20.140;2023-05-19T12:43:20;15.50;99.90
21445;DHT22;10883;51.946;20.140;2023-05-19T12:45:46;15.80;99.90
21445;DHT22;10883;51.946;20.140;2023-05-19T12:48:13;15.90;99.90
21445;DHT22;10883;51.946;20.140;2023-05-19T12:50:43;16.10;99.90
21445;DHT22;10883;51.946;20.140;2023-05-19T12:53:13;16.00;99.90
21445;DHT22;10883;51.946;20.140;2023-05-19T12:55:40;16.00;99.90
21445;DHT22;10883;51.946;20.140;2023-05-19T12:58:10;15.70;99.90
21445;DHT22;10883;51.946;20.140;2023-05-19T13:00:44;15.40;99.90
21445;DHT22;10883;51.946;20.140;2023-05-19T13:03:18;15.30;99.90
21445;DHT22;10883;51.946;20.140;2023-05-19T13:05:46;15.20;99.90
21445;DHT22;10883;51.946;20.140;2023-05-19T13:08:17;15.00;99.90
21445;DHT22;10883;51.946;20.140;2023-05-19T13:10:44;15.00;99.90
21445;DHT22;10883;51.946;20.140;2023-05-19T13:13:11;14.90;99.90
21445;DHT22;10883;51.946;20.140;2023-05-19T13:15:41;14.90;99.90
21445;DHT22;10883;51.946;20.140;2023-05-19T13:18:11;15.00;99.90
21445;DHT22;10883;51.946;20.140;2023-05-19T13:20:38;15.00;99.90
21445;DHT22;10883;51.946;20.140;2023-05-19T13:23:04;15.10;99.90
21445;DHT22;10883;51.946;20.140;2023-05-19T13:25:34;15.20;99.90
21445;DHT22;10883;51.946;20.140;2023-05-19T13:28:01;15.20;99.90
21445;DHT22;10883;51.946;20.140;2023-05-19T13:30:31;15.30;99.90
21445;DHT22;10883;51.946;20.140;2023-05-19T13:32:56;15.10;99.90
21445;DHT22;10883;51.946;20.140;2023-05-19T13:35:22;15.00;99.90
21445;DHT22;10883;51.946;20.140;2023-05-19T13:37:48;14.90;99.90
21445;DHT22;10883;51.946;20.140;2023-05-19T13:40:14;14.90;99.90
21445;DHT22;10883;51.946;20.140;2023-05-19T13:42:41;15.00;99.90
21445;DHT22;10883;51.946;20.140;2023-05-19T13:45:07;15.00;99.90
21445;DHT22;10883;51.946;20.140;2023-05-19T13:47:34;15.10;99.90
21445;DHT22;10883;51.946;20.140;2023-05-19T13:50:00;15.10;99.90
21445;DHT22;10883;51.946;20.140;2023-05-19T13:52:26;15.00;99.90
21445;DHT22;10883;51.946;20.140;2023-05-19T13:54:52;14.90;99.90
21445;DHT22;10883;51.946;20.140;2023-05-19T13:57:22;15.00;99.90
21445;DHT22;10883;51.946;20.140;2023-05-19T13:59:48;15.00;99.90
21445;DHT22;10883;51.946;20.140;2023-05-19T14:02:14;14.90;99.90
21445;DHT22;10883;51.946;20.140;2023-05-19T14:04:40;14.90;99.90
21445;DHT22;10883;51.946;20.140;2023-05-19T14:07:06;14.90;99.90
21445;DHT22;10883;51.946;20.140;2023-05-19T14:09:34;14.90;99.90
21445;DHT22;10883;51.946;20.140;2023-05-19T14:11:59;15.00;99.90
21445;DHT22;10883;51.946;20.140;2023-05-19T14:14:25;15.20;99.90
21445;DHT22;10883;51.946;20.140;2023-05-19T14:16:51;15.20;99.90
21445;DHT22;10883;51.946;20.140;2023-05-19T14:19:17;15.20;99.90
21445;DHT22;10883;51.946;20.140;2023-05-19T14:21:43;15.20;99.90
21445;DHT22;10883;51.946;20.140;2023-05-19T14:24:09;15.30;99.90
21445;DHT22;10883;51.946;20.140;2023-05-19T14:26:34;15.30;99.90
21445;DHT22;10883;51.946;20.140;2023-05-19T14:29:01;15.30;99.90
21445;DHT22;10883;51.946;20.140;2023-05-19T14:31:27;15.30;99.90
21445;DHT22;10883;51.946;20.140;2023-05-19T14:33:53;15.20;99.90
21445;DHT22;10883;51.946;20.140;2023-05-19T14:36:18;15.10;99.90
21445;DHT22;10883;51.946;20.140;2023-05-19T14:38:44;15.00;99.90
21445;DHT22;10883;51.946;20.140;2023-05-19T14:41:10;15.00;99.90
21445;DHT22;10883;51.946;20.140;2023-05-19T14:43:36;15.10;99.90
21445;DHT22;10883;51.946;20.140;2023-05-19T14:46:01;15.10;99.90
21445;DHT22;10883;51.946;20.140;2023-05-19T14:48:27;15.10;99.90
21445;DHT22;10883;51.946;20.140;2023-05-19T14:50:53;15.10;99.90
21445;DHT22;10883;51.946;20.140;2023-05-19T14:53:19;15.00;99.90
21445;DHT22;10883;51.946;20.140;2023-05-19T14:55:46;14.90;99.90
21445;DHT22;10883;51.946;20.140;2023-05-19T14:58:13;14.90;99.90
21445;DHT22;10883;51.946;20.140;2023-05-19T15:00:41;14.90;99.90
21445;DHT22;10883;51.946;20.140;2023-05-19T15:03:07;14.80;99.90
21445;DHT22;10883;51.946;20.140;2023-05-19T15:05:33;14.80;99.90
21445;DHT22;10883;51.946;20.140;2023-05-19T15:07:59;14.80;99.90
21445;DHT22;10883;51.946;20.140;2023-05-19T15:10:25;14.80;99.90
21445;DHT22;10883;51.946;20.140;2023-05-19T15:12:51;14.80;99.90
21445;DHT22;10883;51.946;20.140;2023-05-19T15:15:16;14.80;99.90
21445;DHT22;10883;51.946;20.140;2023-05-19T15:17:42;14.70;99.90
21445;DHT22;10883;51.946;20.140;2023-05-19T15:20:10;14.70;99.90
21445;DHT22;10883;51.946;20.140;2023-05-19T15:22:36;14.80;99.90
21445;DHT22;10883;51.946;20.140;2023-05-19T15:25:02;14.80;99.90
21445;DHT22;10883;51.946;20.140;2023-05-19T15:27:28;14.80;99.90
21445;DHT22;10883;51.946;20.140;2023-05-19T15:29:53;14.90;99.90
21445;DHT22;10883;51.946;20.140;2023-05-19T15:32:19;15.00;99.90
21445;DHT22;10883;51.946;20.140;2023-05-19T15:34:45;15.00;99.90
21445;DHT22;10883;51.946;20.140;2023-05-19T15:37:11;15.00;99.90
21445;DHT22;10883;51.946;20.140;2023-05-19T15:39:36;14.90;99.90
21445;DHT22;10883;51.946;20.140;2023-05-19T15:42:02;14.90;99.90
21445;DHT22;10883;51.946;20.140;2023-05-19T15:44:28;14.80;99.90
21445;DHT22;10883;51.946;20.140;2023-05-19T15:46:54;14.90;99.90
21445;DHT22;10883;51.946;20.140;2023-05-19T15:49:20;14.90;99.90
21445;DHT22;10883;51.946;20.140;2023-05-19T15:51:46;15.00;99.90